Meath Environmental Platform

Observations for Trim Patrick St

Time AQI Temp °C Hum % Pres Pa CO μg/m³ H₂S μg/m³ NO μg/m³ NO₂ μg/m³ O₃ μg/m³ SO₂ μg/m³ PM1 μg/m³ PM2.5 μg/m³ PM10 μg/m³
Wednesday 26 August 2026
14:55 2 26.1 61 78,342 0 0 3.12 11.98 61.3 6.83 9.71 15.33 16.87
14:54 2 26.1 61 78,493 0 0 3.09 10.19 58.27 6.48 11.43 17.57 19.33
14:53 2 26.1 64 78,806 0 0 3.38 5.09 60.83 7.14 12.29 18.05 19.86
14:52 2 26.1 61 79,322 0 0 3.07 10.1 59.55 7.27 12.29 19.79 21.77
14:51 2 26.2 65 79,926 0 0 3.41 4.05 52.03 6.27 12.29 19.4 21.34
14:50 2 26.1 63 80,742 0 0 3.24 9.19 59.17 6.53 9.71 15.93 17.53
14:49 2 26.1 64 81,730 0 0 3.41 4.85 58.15 7.45 13.14 20.17 22.19
14:48 2 26.1 61 82,986 0 0 3.15 10.57 55.79 6.79 10.57 17.52 19.28
14:47 2 26.1 62 84,241 0 0 3.28 5.18 57.39 7.39 14 21.17 23.28
14:46 2 26.1 61 86,208 0 0 3.19 7.66 60.31 7.35 13.14 19.78 21.76
14:45 2 26.1 62 88,472 0 0 3.28 5.54 58.39 6.58 13.14 20.4 22.44
14:44 2 26.2 63 91,494 0 0 3.32 8.93 49.53 7.16 12.29 19.59 21.54
14:43 2 26.2 63 95,232 0 0 3.26 8.26 50.83 7.16 8.86 15.16 16.68
14:42 2 26.1 64 99,581 0 0 3.35 6.59 55.87 8.17 13.14 18.77 20.65
14:41 2 26.1 63 104,477 0 0 3.26 14.59 42.5 7.63 12.29 20.33 22.37
14:40 2 26 66 104,760 0 0 3.5 14.68 42.73 7.48 13.14 22.18 24.4
14:39 2 26 63 105,356 0 0 3.32 15.34 42.4 7.03 14.86 19.6 21.56
14:38 2 26 64 105,630 0.01 0 3.5 11.83 45.33 6.89 12.29 16.51 18.16
14:36 2 25.9 64 113,340 0.06 0 3.39 10.96 48.22 6.94 11.43 20.22 22.24
14:35 2 25.9 63 4,326 0 0 3.39 11.12 50.21 7.5 13.14 21.03 22